createdAt,value
2017-09-18T00:01:02.724Z,63.04
2017-09-18T00:03:33.840Z,63.39
2017-09-18T00:06:06.297Z,63.31
2017-09-18T00:08:38.975Z,63.08
2017-09-18T00:11:10.903Z,63.12
2017-09-18T00:13:41.488Z,63.52
2017-09-18T00:16:12.034Z,63.15
2017-09-18T00:18:42.666Z,63.12
2017-09-18T00:21:13.390Z,63.41
2017-09-18T00:23:44.766Z,63.46
2017-09-18T00:26:16.339Z,63.41
2017-09-18T00:28:46.775Z,63.64
2017-09-18T00:31:18.101Z,63.77
2017-09-18T00:33:49.031Z,63.86
2017-09-18T00:36:19.591Z,63.49
2017-09-18T00:38:50.834Z,63.68
2017-09-18T00:41:22.107Z,64.13
2017-09-18T00:43:52.609Z,63.89
2017-09-18T00:46:23.817Z,64.03
2017-09-18T00:48:54.701Z,63.61
2017-09-18T00:51:28.570Z,62.91
2017-09-18T00:54:03.566Z,63.12
2017-09-18T00:56:34.241Z,63.36
2017-09-18T00:59:05.470Z,63.18
2017-09-18T01:01:37.761Z,63.50
2017-09-18T01:04:08.666Z,63.49
2017-09-18T01:06:39.377Z,64.08
2017-09-18T01:09:12.317Z,64.14
2017-09-18T01:11:46.987Z,64.39
2017-09-18T01:14:18.351Z,63.92
2017-09-18T01:16:49.351Z,63.95
2017-09-18T01:19:20.212Z,64.05
2017-09-18T01:21:51.292Z,64.52
2017-09-18T01:24:22.866Z,64.53
2017-09-18T01:26:53.904Z,64.28
2017-09-18T01:29:24.337Z,63.98
2017-09-18T01:31:55.660Z,63.85
2017-09-18T01:34:27.800Z,63.53
2017-09-18T01:36:58.391Z,63.31
2017-09-18T01:39:32.895Z,63.34
2017-09-18T01:42:45.645Z,63.25
2017-09-18T01:45:17.787Z,62.86
2017-09-18T01:47:49.535Z,63.06
2017-09-18T01:50:20.730Z,63.09
2017-09-18T01:52:52.509Z,62.52
2017-09-18T01:55:27.666Z,63.71
2017-09-18T01:58:07.013Z,63.41
2017-09-18T02:00:46.931Z,63.56
2017-09-18T02:03:20.173Z,63.29
2017-09-18T02:05:51.703Z,62.71
2017-09-18T02:08:23.064Z,62.45
2017-09-18T02:10:55.785Z,63.21
2017-09-18T02:13:27.903Z,63.51
2017-09-18T02:15:59.198Z,63.38
2017-09-18T02:18:30.689Z,63.57
2017-09-18T02:21:06.689Z,63.50
2017-09-18T02:23:51.253Z,63.87
2017-09-18T02:26:22.518Z,63.39
2017-09-18T02:28:54.135Z,63.60
2017-09-18T02:31:24.977Z,63.92
2017-09-18T02:33:55.953Z,64.03
2017-09-18T02:36:28.092Z,63.69
2017-09-18T02:38:59.898Z,63.38
2017-09-18T02:41:30.968Z,63.70
2017-09-18T02:44:03.613Z,63.60
2017-09-18T02:46:35.207Z,63.13
2017-09-18T02:49:06.618Z,62.83
2017-09-18T02:51:38.243Z,62.53
2017-09-18T02:54:10.392Z,62.43
2017-09-18T02:56:41.801Z,63.03
2017-09-18T02:59:13.303Z,62.99
2017-09-18T03:01:45.770Z,63.28
2017-09-18T03:04:17.956Z,62.67
2017-09-18T03:06:49.733Z,62.96
2017-09-18T03:09:21.638Z,62.86
2017-09-18T03:11:53.845Z,63.15
2017-09-18T03:14:27.068Z,62.93
2017-09-18T03:16:58.930Z,62.42
2017-09-18T03:19:30.588Z,62.10
2017-09-18T03:22:02.956Z,62.35
2017-09-18T03:24:34.981Z,62.75
2017-09-18T03:27:07.189Z,62.87
2017-09-18T03:29:38.985Z,62.89
2017-09-18T03:32:11.673Z,62.89
2017-09-18T03:34:43.415Z,62.42
2017-09-18T03:37:15.505Z,62.08
2017-09-18T03:39:46.700Z,62.63
2017-09-18T03:42:21.055Z,63.10
2017-09-18T03:44:52.899Z,62.45
2017-09-18T03:47:25.731Z,62.45
2017-09-18T03:49:58.211Z,62.80
2017-09-18T03:52:32.336Z,63.01
2017-09-18T03:55:04.453Z,62.52
2017-09-18T03:57:37.932Z,62.83
2017-09-18T04:00:13.861Z,62.65
2017-09-18T04:02:48.794Z,62.98
2017-09-18T04:05:25.381Z,62.35
2017-09-18T04:07:56.526Z,62.87
2017-09-18T04:10:32.839Z,62.86
2017-09-18T04:13:06.601Z,63.35
2017-09-18T04:15:38.648Z,63.49
2017-09-18T04:18:18.458Z,63.35
2017-09-18T04:20:50.833Z,63.27
2017-09-18T04:23:24.415Z,63.21
2017-09-18T04:25:58.424Z,63.27
2017-09-18T04:28:30.488Z,63.70
2017-09-18T04:31:04.692Z,63.48
2017-09-18T04:33:37.678Z,63.25
2017-09-18T04:36:12.035Z,63.22
2017-09-18T04:38:44.537Z,63.42
2017-09-18T04:41:18.557Z,63.32
2017-09-18T04:43:50.854Z,62.90
2017-09-18T04:46:22.352Z,63.04
2017-09-18T04:48:56.015Z,63.41
2017-09-18T04:51:27.798Z,62.82
2017-09-18T04:54:00.022Z,62.90
2017-09-18T04:56:32.408Z,62.85
2017-09-18T04:59:04.937Z,62.43
2017-09-18T05:01:37.483Z,62.99
2017-09-18T05:04:09.074Z,63.45
2017-09-18T05:06:40.624Z,63.28
2017-09-18T05:09:12.552Z,63.74
2017-09-18T05:11:45.054Z,63.03
2017-09-18T05:14:18.250Z,62.91
2017-09-18T05:16:49.499Z,62.79
2017-09-18T05:19:20.561Z,62.86
2017-09-18T05:21:51.425Z,62.84
2017-09-18T05:24:46.998Z,63.45
2017-09-18T05:27:18.162Z,62.73
2017-09-18T05:29:48.723Z,62.85
2017-09-18T05:32:21.771Z,62.74
2017-09-18T05:34:52.631Z,62.64
2017-09-18T05:37:24.274Z,63.00
2017-09-18T05:40:05.826Z,63.79
2017-09-18T05:42:40.140Z,63.59
2017-09-18T05:45:20.291Z,63.61
2017-09-18T05:48:00.206Z,63.95
2017-09-18T05:50:36.828Z,64.23
2017-09-18T05:53:08.552Z,64.16
2017-09-18T05:55:40.028Z,63.86
2017-09-18T05:58:11.186Z,63.33
2017-09-18T06:00:42.276Z,62.99
2017-09-18T06:03:14.463Z,63.25
2017-09-18T06:05:45.230Z,63.26
2017-09-18T06:08:30.694Z,63.34
2017-09-18T06:14:10.180Z,63.24
2017-09-18T06:16:43.153Z,63.55
2017-09-18T06:19:14.877Z,64.19
2017-09-18T06:21:46.620Z,64.40
2017-09-18T06:24:18.064Z,65.19
2017-09-18T06:26:49.583Z,64.80
2017-09-18T06:29:38.781Z,64.38
2017-09-18T06:32:25.379Z,64.68
2017-09-18T06:35:01.465Z,64.87
2017-09-18T06:37:42.722Z,65.23
2017-09-18T06:40:27.018Z,64.92
2017-09-18T06:43:30.184Z,64.78
2017-09-18T06:46:03.365Z,65.06
2017-09-18T06:48:34.891Z,65.06
2017-09-18T06:51:05.906Z,65.30
2017-09-18T06:53:37.049Z,65.53
2017-09-18T06:56:09.343Z,65.25
2017-09-18T06:58:41.114Z,64.91
2017-09-18T07:01:16.901Z,64.08
2017-09-18T07:03:51.150Z,64.19
2017-09-18T07:06:25.092Z,64.03
2017-09-18T07:08:57.183Z,64.77
2017-09-18T07:11:30.772Z,64.49
2017-09-18T07:14:03.020Z,64.67
2017-09-18T07:16:35.309Z,64.47
2017-09-18T07:19:07.549Z,64.85
2017-09-18T07:21:39.801Z,65.12
2017-09-18T07:24:12.397Z,65.11
2017-09-18T07:26:43.897Z,66.40
2017-09-18T07:29:15.264Z,66.42
2017-09-18T07:31:46.407Z,64.16
2017-09-18T07:34:18.293Z,63.99
2017-09-18T07:36:50.357Z,63.85
2017-09-18T07:39:22.108Z,64.01
2017-09-18T07:41:54.212Z,63.45
2017-09-18T07:44:25.625Z,63.18
2017-09-18T07:46:58.427Z,62.94
2017-09-18T07:49:28.996Z,62.68
2017-09-18T07:52:02.073Z,62.58
2017-09-18T07:54:33.384Z,63.13
2017-09-18T07:57:04.805Z,63.01
2017-09-18T07:59:38.195Z,62.79
2017-09-18T08:02:12.454Z,62.63
2017-09-18T08:04:46.775Z,63.40
2017-09-18T08:07:29.202Z,62.95
2017-09-18T08:10:02.736Z,63.82
2017-09-18T08:12:38.105Z,64.99
2017-09-18T08:15:10.215Z,63.62
2017-09-18T08:17:42.575Z,63.22
2017-09-18T08:20:14.741Z,63.30
2017-09-18T08:22:51.480Z,63.19
2017-09-18T08:25:25.502Z,63.46
2017-09-18T08:27:58.648Z,64.11
2017-09-18T08:30:31.849Z,62.71
2017-09-18T08:33:10.017Z,62.84
2017-09-18T08:35:42.446Z,62.56
2017-09-18T08:38:16.299Z,61.55
2017-09-18T08:40:51.891Z,62.62
2017-09-18T08:43:27.096Z,62.29
2017-09-18T08:46:00.395Z,63.35
2017-09-18T08:48:44.251Z,62.08
2017-09-18T08:51:18.687Z,59.88
2017-09-18T08:56:31.565Z,61.69
2017-09-18T08:59:05.317Z,61.12
2017-09-18T09:01:44.493Z,63.02
2017-09-18T09:04:16.441Z,60.28
2017-09-18T09:06:48.736Z,61.49
2017-09-18T09:09:31.504Z,61.98
2017-09-18T09:12:03.306Z,61.90
2017-09-18T09:14:34.982Z,60.75
2017-09-18T09:17:16.186Z,61.45
2017-09-18T09:19:50.262Z,59.77
2017-09-18T09:22:22.108Z,58.24
2017-09-18T09:24:53.698Z,58.90
2017-09-18T09:27:28.009Z,56.26
2017-09-18T09:30:01.024Z,57.53
2017-09-18T09:32:46.771Z,58.97
2017-09-18T09:35:30.608Z,60.06
2017-09-18T09:41:01.777Z,59.64
2017-09-18T09:43:47.109Z,59.25
2017-09-18T09:46:22.706Z,57.99
2017-09-18T09:49:25.789Z,58.60
2017-09-18T09:52:00.964Z,58.69
2017-09-18T09:54:32.731Z,57.62
2017-09-18T09:57:04.609Z,57.93
2017-09-18T09:59:38.920Z,57.29
2017-09-18T10:02:11.292Z,59.23
2017-09-18T10:07:44.985Z,59.88
2017-09-18T10:10:27.245Z,59.63
2017-09-18T10:13:09.213Z,60.32
2017-09-18T10:18:23.173Z,62.32
2017-09-18T10:20:59.951Z,60.52
2017-09-18T10:23:41.981Z,60.65
2017-09-18T10:26:13.255Z,60.77
2017-09-18T10:28:53.603Z,60.64
2017-09-18T10:31:29.267Z,58.63
2017-09-18T10:34:16.631Z,59.49
2017-09-18T10:36:56.422Z,60.08
2017-09-18T10:39:44.324Z,60.16
2017-09-18T10:42:36.285Z,60.34
2017-09-18T10:48:22.226Z,56.41
2017-09-18T10:51:01.220Z,58.06
2017-09-18T10:53:44.187Z,59.34
2017-09-18T10:56:31.810Z,61.06
2017-09-18T10:59:49.076Z,60.00
2017-09-18T11:05:35.620Z,57.95
2017-09-18T11:08:20.393Z,56.00
2017-09-18T11:11:11.066Z,58.72
2017-09-18T11:16:54.619Z,56.49
2017-09-18T11:32:51.192Z,56.16
2017-09-18T11:35:34.752Z,57.07
2017-09-18T11:38:13.396Z,54.21
2017-09-18T11:45:01.383Z,52.86
2017-09-18T11:54:15.087Z,53.08
2017-09-18T11:57:07.159Z,51.77
2017-09-18T11:59:59.069Z,52.83
2017-09-18T12:02:40.740Z,52.37
2017-09-18T12:08:18.479Z,51.60
2017-09-18T12:14:08.614Z,49.68
2017-09-18T12:20:07.048Z,50.58
2017-09-18T12:26:40.158Z,50.00
2017-09-18T12:29:41.290Z,50.33
2017-09-18T12:32:18.638Z,49.25
2017-09-18T12:35:23.809Z,50.47
2017-09-18T12:38:22.628Z,49.73
2017-09-18T12:41:30.508Z,48.38
2017-09-18T12:44:15.934Z,50.52
2017-09-18T12:47:08.516Z,49.85
2017-09-18T12:49:44.735Z,50.28
2017-09-18T12:52:25.103Z,48.98
2017-09-18T12:58:07.077Z,50.64
2017-09-18T13:00:47.302Z,48.18
2017-09-18T13:03:22.829Z,49.39
2017-09-18T13:09:05.733Z,52.70
2017-09-18T13:15:47.649Z,52.00
2017-09-18T13:21:47.187Z,53.76
2017-09-18T13:27:48.088Z,51.60
2017-09-18T13:30:53.330Z,51.73
2017-09-18T13:33:36.831Z,50.65
2017-09-18T13:39:19.327Z,51.54
2017-09-18T13:42:05.439Z,51.07
2017-09-18T13:47:53.773Z,49.12
2017-09-18T13:50:42.268Z,50.15
2017-09-18T13:53:46.538Z,51.03
2017-09-18T13:56:41.682Z,52.53
2017-09-18T13:59:27.757Z,52.20
2017-09-18T14:02:17.042Z,51.74
2017-09-18T14:08:18.535Z,52.10
2017-09-18T14:11:16.393Z,53.30
2017-09-18T14:16:50.621Z,53.81
2017-09-18T14:23:24.151Z,53.81
2017-09-18T14:31:22.555Z,53.63
2017-09-18T14:37:33.851Z,53.77
2017-09-18T14:43:52.793Z,52.12
2017-09-18T14:46:50.165Z,53.94
2017-09-18T14:49:33.171Z,52.80
2017-09-18T14:52:13.720Z,50.99
2017-09-18T14:54:52.045Z,50.08
2017-09-18T15:00:27.417Z,50.38
2017-09-18T15:07:29.258Z,51.34
2017-09-18T15:10:19.073Z,53.15
2017-09-18T15:13:12.655Z,53.77
2017-09-18T15:15:57.667Z,52.74
2017-09-18T15:18:51.177Z,53.49
2017-09-18T15:24:40.257Z,53.17
2017-09-18T15:27:15.472Z,51.58
2017-09-18T15:29:57.621Z,52.33
2017-09-18T15:38:22.229Z,50.62
2017-09-18T15:41:26.719Z,51.36
2017-09-18T15:44:08.117Z,50.06
2017-09-18T15:49:41.684Z,50.38
2017-09-18T15:55:12.878Z,51.44
2017-09-18T15:57:46.241Z,50.75
2017-09-18T16:00:39.206Z,52.53
2017-09-18T16:03:27.605Z,51.97
2017-09-18T16:06:04.165Z,52.42
2017-09-18T16:08:48.522Z,51.72
2017-09-18T16:11:23.390Z,52.84
2017-09-18T16:14:05.473Z,53.26
2017-09-18T16:16:52.989Z,53.38
2017-09-18T16:19:29.509Z,53.40
2017-09-18T16:24:57.184Z,53.73
2017-09-18T16:30:31.135Z,54.84
2017-09-18T16:42:16.375Z,55.64
2017-09-18T16:50:52.830Z,55.85
2017-09-18T16:59:32.216Z,56.67
2017-09-18T17:02:06.234Z,56.72
2017-09-18T17:04:40.300Z,57.24
2017-09-18T17:07:22.340Z,56.79
2017-09-18T17:10:20.938Z,56.82
2017-09-18T17:13:01.498Z,57.09
2017-09-18T17:15:44.189Z,57.31
2017-09-18T17:18:18.184Z,56.69
2017-09-18T17:23:39.160Z,57.54
2017-09-18T17:26:13.758Z,58.16
2017-09-18T17:28:48.837Z,58.01
2017-09-18T17:31:22.194Z,58.04
2017-09-18T17:34:02.934Z,57.85
2017-09-18T17:36:44.598Z,57.70
2017-09-18T17:39:19.542Z,57.82
2017-09-18T17:42:02.881Z,57.80
2017-09-18T17:44:49.234Z,57.99
2017-09-18T17:50:44.434Z,58.37
2017-09-18T17:57:01.177Z,59.25
2017-09-18T17:59:40.242Z,59.45
2017-09-18T18:23:18.128Z,58.17
2017-09-18T18:25:59.475Z,58.17
2017-09-18T18:28:49.067Z,58.35
2017-09-18T18:41:18.387Z,58.08
2017-09-18T18:43:52.385Z,59.14
2017-09-18T18:46:53.940Z,59.31
2017-09-18T18:49:36.860Z,59.20
2017-09-18T18:56:05.133Z,59.02
2017-09-18T18:58:41.274Z,60.46
2017-09-18T19:01:13.608Z,60.45
2017-09-18T19:03:45.085Z,61.89
2017-09-18T19:06:19.284Z,63.22
2017-09-18T19:08:54.395Z,62.83
2017-09-18T19:11:28.873Z,63.37
2017-09-18T19:14:03.039Z,63.08
2017-09-18T19:16:39.425Z,63.69
2017-09-18T19:19:12.475Z,63.96
2017-09-18T19:21:45.637Z,64.22
2017-09-18T19:24:17.715Z,63.90
2017-09-18T19:26:56.312Z,63.10
2017-09-18T19:29:27.853Z,63.72
2017-09-18T19:32:00.769Z,64.89
2017-09-18T19:34:38.185Z,64.57
2017-09-18T19:37:12.767Z,63.91
2017-09-18T19:39:45.379Z,63.48
2017-09-18T19:42:19.989Z,63.61
2017-09-18T19:44:53.179Z,63.10
2017-09-18T19:47:24.783Z,63.21
2017-09-18T19:49:56.169Z,63.55
2017-09-18T19:52:28.584Z,64.02
2017-09-18T19:55:00.609Z,63.98
2017-09-18T19:57:32.436Z,63.72
2017-09-18T20:00:05.216Z,64.41
2017-09-18T20:02:39.517Z,63.75
2017-09-18T20:05:12.962Z,63.18
2017-09-18T20:07:44.896Z,62.95
2017-09-18T20:10:16.141Z,62.66
2017-09-18T20:12:49.003Z,62.28
2017-09-18T20:15:21.052Z,62.38
2017-09-18T20:17:54.942Z,62.55
2017-09-18T20:20:28.500Z,62.29
2017-09-18T20:23:01.804Z,62.35
2017-09-18T20:25:35.464Z,61.99
2017-09-18T20:28:13.322Z,62.69
2017-09-18T20:30:46.627Z,62.23
2017-09-18T20:33:19.631Z,62.36
2017-09-18T20:35:51.858Z,62.59
2017-09-18T20:38:24.488Z,62.47
2017-09-18T20:40:58.343Z,62.18
2017-09-18T20:43:32.097Z,62.51
2017-09-18T20:46:03.694Z,62.57
2017-09-18T20:48:36.680Z,62.79
2017-09-18T20:51:08.192Z,62.95
2017-09-18T20:53:39.723Z,63.11
2017-09-18T20:56:13.032Z,63.31
2017-09-18T20:58:45.286Z,63.40
2017-09-18T21:01:18.296Z,63.25
2017-09-18T21:03:50.271Z,63.18
2017-09-18T21:06:22.467Z,63.23
2017-09-18T21:08:55.316Z,63.01
2017-09-18T21:11:27.824Z,62.99
2017-09-18T21:13:59.254Z,62.89
2017-09-18T21:16:31.548Z,62.92
2017-09-18T21:19:03.275Z,62.69
2017-09-18T21:21:35.776Z,62.45
2017-09-18T21:24:07.531Z,62.49
2017-09-18T21:26:39.463Z,62.65
2017-09-18T21:29:11.076Z,62.68
2017-09-18T21:31:43.459Z,62.76
2017-09-18T21:34:17.462Z,62.62
2017-09-18T21:36:52.319Z,62.47
2017-09-18T21:39:23.930Z,62.59
2017-09-18T21:41:57.219Z,62.62
2017-09-18T21:44:28.774Z,62.78
2017-09-18T21:47:01.077Z,62.83
2017-09-18T21:49:36.080Z,62.61
2017-09-18T21:52:08.148Z,62.76
2017-09-18T21:54:41.214Z,62.62
2017-09-18T21:57:13.322Z,62.59
2017-09-18T21:59:45.539Z,62.52
2017-09-18T22:02:17.912Z,62.68
2017-09-18T22:04:49.643Z,62.74
2017-09-18T22:07:22.916Z,62.80
2017-09-18T22:09:56.848Z,63.47
2017-09-18T22:12:30.052Z,62.99
2017-09-18T22:15:02.519Z,62.86
2017-09-18T22:17:35.441Z,62.60
2017-09-18T22:20:09.286Z,62.52
2017-09-18T22:22:41.778Z,62.79
2017-09-18T22:25:14.082Z,62.81
2017-09-18T22:27:45.453Z,63.05
2017-09-18T22:30:17.651Z,62.96
2017-09-18T22:32:50.506Z,62.74
2017-09-18T22:35:22.413Z,62.81
2017-09-18T22:37:54.886Z,62.83
2017-09-18T22:40:26.715Z,62.64
2017-09-18T22:45:25.849Z,62.36
2017-09-18T22:47:57.510Z,61.98
2017-09-18T22:50:29.077Z,61.79
2017-09-18T22:53:06.456Z,61.77
2017-09-18T22:55:39.809Z,61.71
2017-09-18T22:58:11.602Z,61.43
2017-09-18T23:00:43.137Z,61.81
2017-09-18T23:03:18.819Z,62.75
2017-09-18T23:05:51.443Z,62.77
2017-09-18T23:08:24.762Z,62.94
2017-09-18T23:10:59.644Z,62.97
2017-09-18T23:13:33.622Z,63.15
2017-09-18T23:16:05.736Z,63.32
2017-09-18T23:18:37.109Z,63.29
2017-09-18T23:21:09.011Z,62.91
2017-09-18T23:23:40.238Z,62.88
2017-09-18T23:26:12.348Z,62.74
2017-09-18T23:28:45.537Z,62.53
2017-09-18T23:31:19.956Z,62.52
2017-09-18T23:33:51.959Z,62.55
2017-09-18T23:36:23.228Z,62.73
2017-09-18T23:38:55.530Z,62.94
2017-09-18T23:41:28.255Z,63.15
2017-09-18T23:44:00.295Z,63.10
2017-09-18T23:46:33.929Z,63.01
2017-09-18T23:49:07.396Z,62.96
2017-09-18T23:51:39.341Z,62.41
2017-09-18T23:54:12.113Z,62.22
2017-09-18T23:56:53.605Z,61.90
2017-09-18T23:59:30.469Z,61.57
